Shoukeimaruno.3 — JI3587 — position and weather

sailwx.info

Track history (hours):
 
Tides and Currents Weather Stations Pressure Air Temp Water Temp Dewpoint Dewpoint Depression Visibility Wind Speed Wind Dir Waves Ship Positions

Shoukeimaruno.3

Last reported at 2016-May-24 20:08 UTC. Time now 2016-May-28 02:02 UTC.
Position N 34°44' E 138°42'.

Length 77 m; draft 4.2 m.

Type: Cargo ship. MMSI: 431300325.

Date/timePositionNaut miles runAvg speedWind from/ knotsBaromVisibWave heightAir tempDewpointWater temp
2016-May-24 20:08N 34°44' E 138°42'24 6.8
2016-May-24 16:33N 34°52' E 139°10'3110.2
2016-May-24 13:32N 35°08' E 139°42'9 9.5
2016-May-24 12:33N 35°18' E 139°44'6 6.4
2016-May-24 11:34N 35°23' E 139°40'0 0.0
2016-May-24 10:33N 35°23' E 139°40'0 0.1
2016-May-24 09:34N 35°23' E 139°40'1 1.1
2016-May-24 08:33N 35°24' E 139°40'0 0.0
2016-May-24 07:34N 35°24' E 139°40'0 0.0
2016-May-24 06:33N 35°24' E 139°40'2 2.1
2016-May-24 05:34N 35°22' E 139°41'1211.9
2016-May-24 04:34N 35°11' E 139°47'1313.4
2016-May-24 03:34N 34°58' E 139°44'1211.5
2016-May-24 02:30N 34°54' E 139°57'1112.1
2016-May-24 01:33N 35°00' E 140°09'2311.6
2016-May-23 23:33N 35°15' E 140°30'1313.1
2016-May-23 22:33N 35°26' E 140°40'1313.3
2016-May-23 21:33N 35°36' E 140°50'1312.8
2016-May-23 20:33N 35°48' E 140°56'1713.6
2016-May-23 19:20N 36°05' E 140°59'1113.6
2016-May-23 18:33N 36°15' E 141°01'1313.4
2016-May-23 17:33N 36°29' E 141°03'1313.6
2016-May-23 16:33N 36°42' E 141°05'1813.4
2016-May-23 15:12N 36°60' E 141°08'15 0.6
2016-May-22 15:17N 37°13' E 141°17'811.0
2016-May-22 14:34N 37°05' E 141°16'1110.9
2016-May-22 13:34N 36°55' E 141°15'1110.9
2016-May-22 12:33N 36°45' E 141°07'1111.0
2016-May-22 11:33N 36°36' E 140°60'1111.0
2016-May-22 10:33N 36°27' E 140°53'1110.6
2016-May-22 09:34N 36°17' E 140°49'1310.9
2016-May-22 08:22N 36°04' E 140°45'910.8
2016-May-22 07:33N 35°56' E 140°42'3 2.2
2016-May-22 06:25N 35°53' E 140°41'0 0.0
2016-May-22 04:13N 35°53' E 140°41'0 0.0
2016-May-22 03:31N 35°53' E 140°41'0 0.0
2016-May-22 02:10N 35°53' E 140°41'0 0.0
2016-May-22 01:19N 35°53' E 140°41'0 0.0
2016-May-22 00:31N 35°53' E 140°41'0 0.0
2016-May-21 23:28N 35°53' E 140°41'0 0.0
2016-May-21 22:10N 35°53' E 140°41'2 3.3
2016-May-21 21:32N 35°55' E 140°41'2 2.0
2016-May-21 20:33N 35°57' E 140°42'0 0.0
2016-May-21 19:32N 35°57' E 140°42'0 0.0
2016-May-21 18:33N 35°57' E 140°42'0 0.0
2016-May-21 17:33N 35°57' E 140°42'0 0.0
2016-May-21 16:33N 35°57' E 140°42'3 3.0
2016-May-21 15:33N 35°60' E 140°43'  
2016-May-18 09:29N 36°52' E 141°12'1112.1
2016-May-18 08:33N 36°40' E 141°09'7410.6
2016-May-18 01:33N 35°30' E 140°41'1611.3
2016-May-18 00:10N 35°17' E 140°30'1911.7
2016-May-17 22:32N 35°03' E 140°14'1212.1
2016-May-17 21:33N 34°55' E 140°03'1311.3
2016-May-17 20:26N 34°48' E 139°50'1011.3
2016-May-17 19:33N 34°44' E 139°39'1110.4
2016-May-17 18:32N 34°39' E 139°28'1210.9
2016-May-17 17:27N 34°36' E 139°14'3110.6
2016-May-17 14:33N 34°33' E 138°37'  
2016-May-15 04:33N 35°09' E 139°44'1110.7
2016-May-15 03:33N 35°20' E 139°42'5 4.9
2016-May-15 02:34N 35°24' E 139°40'0 0.0
2016-May-15 01:33N 35°24' E 139°40'0 0.0
2016-May-15 00:33N 35°24' E 139°40'0 0.0
2016-May-14 23:33N 35°24' E 139°40'0 0.3
2016-May-14 22:33N 35°24' E 139°40'1 0.5
2016-May-14 21:33N 35°23' E 139°40'0 0.0
2016-May-14 20:33N 35°23' E 139°40'  
Track history (hours):
 
Tides and Currents Weather Stations Pressure Air Temp Water Temp Dewpoint Dewpoint Depression Visibility Wind Speed Wind Dir Waves Ship Positions

Shoukeimaruno.3

Last reported at 2016-May-24 20:08 UTC. Time now 2016-May-28 02:02 UTC.
Position N 34°44' E 138°42'.

Length 77 m; draft 4.2 m.

Type: Cargo ship. MMSI: 431300325.

Date/timePositionNaut miles runAvg speedWind from/ knotsBaromVisibWave heightAir tempDewpointWater temp
2016-May-24 20:08N 34°44' E 138°42'24 6.8
2016-May-24 16:33N 34°52' E 139°10'3110.2
2016-May-24 13:32N 35°08' E 139°42'9 9.5
2016-May-24 12:33N 35°18' E 139°44'6 6.4
2016-May-24 11:34N 35°23' E 139°40'0 0.0
2016-May-24 10:33N 35°23' E 139°40'0 0.1
2016-May-24 09:34N 35°23' E 139°40'1 1.1
2016-May-24 08:33N 35°24' E 139°40'0 0.0
2016-May-24 07:34N 35°24' E 139°40'0 0.0
2016-May-24 06:33N 35°24' E 139°40'2 2.1
2016-May-24 05:34N 35°22' E 139°41'1211.9
2016-May-24 04:34N 35°11' E 139°47'1313.4
2016-May-24 03:34N 34°58' E 139°44'1211.5
2016-May-24 02:30N 34°54' E 139°57'1112.1
2016-May-24 01:33N 35°00' E 140°09'2311.6
2016-May-23 23:33N 35°15' E 140°30'1313.1
2016-May-23 22:33N 35°26' E 140°40'1313.3
2016-May-23 21:33N 35°36' E 140°50'1312.8
2016-May-23 20:33N 35°48' E 140°56'1713.6
2016-May-23 19:20N 36°05' E 140°59'1113.6
2016-May-23 18:33N 36°15' E 141°01'1313.4
2016-May-23 17:33N 36°29' E 141°03'1313.6
2016-May-23 16:33N 36°42' E 141°05'1813.4
2016-May-23 15:12N 36°60' E 141°08'15 0.6
2016-May-22 15:17N 37°13' E 141°17'811.0
2016-May-22 14:34N 37°05' E 141°16'1110.9
2016-May-22 13:34N 36°55' E 141°15'1110.9
2016-May-22 12:33N 36°45' E 141°07'1111.0
2016-May-22 11:33N 36°36' E 140°60'1111.0
2016-May-22 10:33N 36°27' E 140°53'1110.6
2016-May-22 09:34N 36°17' E 140°49'1310.9
2016-May-22 08:22N 36°04' E 140°45'910.8
2016-May-22 07:33N 35°56' E 140°42'3 2.2
2016-May-22 06:25N 35°53' E 140°41'0 0.0
2016-May-22 04:13N 35°53' E 140°41'0 0.0
2016-May-22 03:31N 35°53' E 140°41'0 0.0
2016-May-22 02:10N 35°53' E 140°41'0 0.0
2016-May-22 01:19N 35°53' E 140°41'0 0.0
2016-May-22 00:31N 35°53' E 140°41'0 0.0
2016-May-21 23:28N 35°53' E 140°41'0 0.0
2016-May-21 22:10N 35°53' E 140°41'2 3.3
2016-May-21 21:32N 35°55' E 140°41'2 2.0
2016-May-21 20:33N 35°57' E 140°42'0 0.0
2016-May-21 19:32N 35°57' E 140°42'0 0.0
2016-May-21 18:33N 35°57' E 140°42'0 0.0
2016-May-21 17:33N 35°57' E 140°42'0 0.0
2016-May-21 16:33N 35°57' E 140°42'3 3.0
2016-May-21 15:33N 35°60' E 140°43'  
2016-May-18 09:29N 36°52' E 141°12'1112.1
2016-May-18 08:33N 36°40' E 141°09'7410.6
2016-May-18 01:33N 35°30' E 140°41'1611.3
2016-May-18 00:10N 35°17' E 140°30'1911.7
2016-May-17 22:32N 35°03' E 140°14'1212.1
2016-May-17 21:33N 34°55' E 140°03'1311.3
2016-May-17 20:26N 34°48' E 139°50'1011.3
2016-May-17 19:33N 34°44' E 139°39'1110.4
2016-May-17 18:32N 34°39' E 139°28'1210.9
2016-May-17 17:27N 34°36' E 139°14'3110.6
2016-May-17 14:33N 34°33' E 138°37'  
2016-May-15 04:33N 35°09' E 139°44'1110.7
2016-May-15 03:33N 35°20' E 139°42'5 4.9
2016-May-15 02:34N 35°24' E 139°40'0 0.0
2016-May-15 01:33N 35°24' E 139°40'0 0.0
2016-May-15 00:33N 35°24' E 139°40'0 0.0
2016-May-14 23:33N 35°24' E 139°40'0 0.3
2016-May-14 22:33N 35°24' E 139°40'1 0.5
2016-May-14 21:33N 35°23' E 139°40'0 0.0
2016-May-14 20:33N 35°23' E 139°40'  

Dump ship's entire track history